KMIW/MIW METAR and TAF weather

Enter ICAO airport designator
Station Type Date Time Source
KMIW METAR 2020/12/05 05:53 UTC NOAA

KMIW 050553Z AUTO 02004KT 10SM CLR M04/M06 A3007 RMK AO2 SLP190 T10391061 10017 21050 400941050 51005


Station Type Date Time Source
KMIW Decoded METAR 2020/12/05 05:53 UTC NOAA

MARSHALLTOWN MUNICIPAL AIRPORT , IA, United States (KMIW) 42-07N 92-55W 296M
Dec 05, 2020 - 12:53 AM EST / 2020.12.05 0553 UTC
Wind: from the NNE (020 degrees) at 5 MPH (4 KT):0
Visibility: 10 mile(s):0
Sky conditions: clear
Temperature: 25.0 F (-3.9 C)
Windchill: 19 F (-7 C):1
Dew Point: 21.0 F (-6.1 C)
Relative Humidity: 84%
Pressure (altimeter): 30.07 in. Hg (1018 hPa)
Pressure tendency: 0.01 inches (0.5 hPa) higher than three hours ago
ob: KMIW 050553Z AUTO 02004KT 10SM CLR M04/M06 A3007 RMK AO2 SLP190 T10391061 10017 21050 400941050 51005
cycle: 6

Station Type Date Time Source
KMIW TAF UTC NOAA

Error!

Example: see airport list